Time;durP1;ratioP1;P1;durP2;ratioP2;P2;SDS_P1;SDS_P2;PMS_P1;PMS_P2;Temp;Humidity;BMP_temperature;BMP_pressure;BME280_temperature;BME280_humidity;BME280_pressure;Samples;Min_cycle;Max_cycle;Signal;HPM_P1;HPM_P2
2023/07/24 00:00:40;;;;;;;;;;;21.20;84.80;;;;;;2064896;28;19921;-80
2023/07/24 00:01:41;;;;;;;;;;;21.30;85.00;;;;;;2085015;28;19981;-80
2023/07/24 00:02:41;;;;;;;;;;;21.20;85.20;;;;;;2077437;28;20030;-80
2023/07/24 00:03:42;;;;;;;;;;;21.20;85.30;;;;;;2079906;28;19948;-82
2023/07/24 00:04:42;;;;;;;;;;;21.10;85.30;;;;;;2070060;28;20570;-80
2023/07/24 00:05:43;;;;;;;;;;;21.10;85.30;;;;;;2067301;28;22804;-80
2023/07/24 00:06:43;;;;;;;;;;;21.10;86.30;;;;;;2076474;28;20128;-80
2023/07/24 00:07:44;;;;;;;;;;;21.10;85.90;;;;;;2076439;28;19932;-79
2023/07/24 00:08:44;;;;;;;;;;;21.00;86.10;;;;;;2074423;28;19923;-81
2023/07/24 00:09:45;;;;;;;;;;;21.00;86.40;;;;;;2067582;28;20010;-81
2023/07/24 00:10:45;;;;;;;;;;;21.00;86.50;;;;;;2067871;28;19917;-81
2023/07/24 00:11:46;;;;;;;;;;;21.00;86.70;;;;;;2075420;28;19917;-81
2023/07/24 00:12:46;;;;;;;;;;;20.90;87.20;;;;;;2075640;28;19920;-81
2023/07/24 00:13:47;;;;;;;;;;;20.90;87.70;;;;;;2077446;28;20010;-81
2023/07/24 00:14:47;;;;;;;;;;;20.90;87.70;;;;;;2071596;28;19917;-80
2023/07/24 00:15:48;;;;;;;;;;;20.80;87.20;;;;;;2077085;28;19913;-81
2023/07/24 00:16:48;;;;;;;;;;;20.80;87.10;;;;;;2078515;28;20445;-81
2023/07/24 00:17:49;;;;;;;;;;;20.70;87.20;;;;;;2077478;28;19920;-80
2023/07/24 00:18:50;;;;;;;;;;;20.70;87.50;;;;;;2075812;28;20039;-80
2023/07/24 00:19:50;;;;;;;;;;;20.70;87.40;;;;;;2076465;28;20015;-80
2023/07/24 00:20:51;;;;;;;;;;;20.60;87.60;;;;;;2078582;28;19913;-81
2023/07/24 00:21:51;;;;;;;;;;;20.60;87.60;;;;;;2083875;28;19939;-81
2023/07/24 00:22:52;;;;;;;;;;;20.60;87.60;;;;;;2081298;28;19916;-81
2023/07/24 00:23:52;;;;;;;;;;;20.60;87.70;;;;;;2059418;28;19960;-80
2023/07/24 00:24:53;;;;;;;;;;;20.60;87.70;;;;;;2067217;28;19920;-81
2023/07/24 00:25:54;;;;;;;;;;;20.60;88.00;;;;;;2067455;28;19917;-80
2023/07/24 00:26:54;;;;;;;;;;;20.60;88.30;;;;;;2077559;28;19917;-81
2023/07/24 00:27:55;;;;;;;;;;;20.50;88.20;;;;;;2076220;28;20232;-81
2023/07/24 00:28:55;;;;;;;;;;;20.50;88.30;;;;;;2075602;28;20318;-82
2023/07/24 00:29:56;;;;;;;;;;;20.50;88.30;;;;;;2075371;28;19919;-81
2023/07/24 00:30:56;;;;;;;;;;;20.50;88.30;;;;;;2067452;28;19941;-79
2023/07/24 00:31:57;;;;;;;;;;;20.50;88.50;;;;;;2077145;28;20490;-78
2023/07/24 00:32:57;;;;;;;;;;;20.60;88.90;;;;;;2075564;28;20051;-79
2023/07/24 00:34:00;;;;;;;;;;;20.60;88.90;;;;;;2072269;28;20635;-80
2023/07/24 00:35:00;;;;;;;;;;;20.50;89.20;;;;;;2075066;28;20112;-79
2023/07/24 00:36:01;;;;;;;;;;;20.50;88.90;;;;;;2067492;28;19980;-79
2023/07/24 00:37:01;;;;;;;;;;;20.50;88.70;;;;;;2073363;28;19918;-79
2023/07/24 00:38:02;;;;;;;;;;;20.50;88.70;;;;;;2079891;28;19920;-80
2023/07/24 00:39:02;;;;;;;;;;;20.60;88.70;;;;;;2079419;28;19913;-80
2023/07/24 00:40:05;;;;;;;;;;;20.60;88.60;;;;;;2077206;28;19984;-79
2023/07/24 00:41:06;;;;;;;;;;;20.60;88.40;;;;;;2077779;28;19917;-80
2023/07/24 00:42:07;;;;;;;;;;;20.60;88.50;;;;;;2069251;28;19917;-81
2023/07/24 00:43:07;;;;;;;;;;;20.60;88.60;;;;;;2078153;28;19917;-81
2023/07/24 00:44:09;;;;;;;;;;;20.60;88.80;;;;;;2076528;28;19953;-81
2023/07/24 00:45:09;;;;;;;;;;;20.60;89.10;;;;;;2075350;28;19917;-81
2023/07/24 00:46:10;;;;;;;;;;;20.60;89.60;;;;;;2068894;28;19940;-81
2023/07/24 00:47:11;;;;;;;;;;;20.60;89.60;;;;;;2072657;28;19924;-81
2023/07/24 00:48:12;;;;;;;;;;;20.60;89.20;;;;;;2067447;28;19917;-80
2023/07/24 00:49:13;;;;;;;;;;;20.60;88.90;;;;;;2067318;28;19925;-80
2023/07/24 00:50:14;;;;;;;;;;;20.60;88.80;;;;;;2077339;28;20054;-80
2023/07/24 00:51:14;;;;;;;;;;;20.60;88.70;;;;;;2075454;28;19960;-80
2023/07/24 00:52:15;;;;;;;;;;;20.60;88.90;;;;;;2075423;28;20386;-80
2023/07/24 00:53:17;;;;;;;;;;;20.60;89.10;;;;;;2071941;28;20011;-80
2023/07/24 00:54:18;;;;;;;;;;;20.60;89.20;;;;;;2062725;28;20206;-81
2023/07/24 00:55:18;;;;;;;;;;;20.50;89.10;;;;;;2077279;28;19940;-81
2023/07/24 00:56:19;;;;;;;;;;;20.50;89.10;;;;;;2075376;28;20452;-81
2023/07/24 00:57:21;;;;;;;;;;;20.50;89.40;;;;;;2075523;28;19953;-81
2023/07/24 00:58:21;;;;;;;;;;;20.50;89.60;;;;;;2075114;28;19924;-81
2023/07/24 00:59:28;;;;;;;;;;;20.50;90.00;;;;;;2060649;28;19945;-81
2023/07/24 01:00:29;;;;;;;;;;;20.40;90.00;;;;;;2067982;28;19913;-81
2023/07/24 01:01:29;;;;;;;;;;;20.40;90.10;;;;;;2077195;28;19944;-80
2023/07/24 01:02:30;;;;;;;;;;;20.40;90.10;;;;;;2066833;28;19992;-80
2023/07/24 01:03:34;;;;;;;;;;;20.40;90.10;;;;;;2074526;28;19924;-80
2023/07/24 01:04:34;;;;;;;;;;;20.30;90.20;;;;;;2075346;28;19956;-81
2023/07/24 01:05:35;;;;;;;;;;;20.30;90.30;;;;;;2071927;28;19921;-81
2023/07/24 01:06:36;;;;;;;;;;;20.30;90.50;;;;;;2077160;28;19940;-81
2023/07/24 01:07:37;;;;;;;;;;;20.30;90.50;;;;;;2075787;28;19979;-81
2023/07/24 01:08:38;;;;;;;;;;;20.20;90.60;;;;;;2073683;28;20300;-82
2023/07/24 01:09:38;;;;;;;;;;;20.20;90.60;;;;;;2073946;28;19924;-82
2023/07/24 01:10:39;;;;;;;;;;;20.20;90.60;;;;;;2081628;28;19913;-82
2023/07/24 01:11:42;;;;;;;;;;;20.20;90.80;;;;;;2067749;28;19960;-81
2023/07/24 01:12:51;;;;;;;;;;;20.20;90.80;;;;;;2077967;28;20012;-82
2023/07/24 01:13:54;;;;;;;;;;;20.20;91.00;;;;;;2059886;28;20107;-81
2023/07/24 01:14:58;;;;;;;;;;;20.10;91.10;;;;;;2067718;28;19928;-81
2023/07/24 01:16:01;;;;;;;;;;;20.20;91.20;;;;;;2077896;28;20018;-81
2023/07/24 01:17:05;;;;;;;;;;;20.20;91.20;;;;;;2072683;28;19963;-81
2023/07/24 01:18:08;;;;;;;;;;;20.20;91.40;;;;;;2079422;28;19924;-81
2023/07/24 01:19:15;;;;;;;;;;;20.10;91.30;;;;;;2078733;28;19919;-81
2023/07/24 01:20:17;;;;;;;;;;;20.10;91.40;;;;;;2075294;28;19920;-81
2023/07/24 01:21:20;;;;;;;;;;;20.10;91.50;;;;;;2073758;28;20011;-81
2023/07/24 01:22:24;;;;;;;;;;;20.10;91.60;;;;;;2072113;28;20480;-81
2023/07/24 01:23:43;;;;;;;;;;;20.10;91.50;;;;;;2077194;28;19989;-81
2023/07/24 01:24:46;;;;;;;;;;;20.10;91.90;;;;;;2072832;28;19936;-77
2023/07/24 01:25:53;;;;;;;;;;;20.10;91.60;;;;;;2076732;28;19988;-75
2023/07/24 01:26:54;;;;;;;;;;;20.10;91.60;;;;;;2071166;28;20395;-80
2023/07/24 01:27:54;;;;;;;;;;;20.10;91.60;;;;;;2060751;28;19914;-74
2023/07/24 01:28:55;;;;;;;;;;;20.10;91.80;;;;;;2067222;28;19935;-74
2023/07/24 01:29:55;;;;;;;;;;;20.10;91.90;;;;;;2075789;28;20272;-74
2023/07/24 01:30:57;;;;;;;;;;;20.10;91.90;;;;;;2076871;28;19917;-74
2023/07/24 01:31:57;;;;;;;;;;;20.10;92.00;;;;;;2067280;28;19921;-73
2023/07/24 01:32:58;;;;;;;;;;;20.10;91.90;;;;;;2074366;28;20380;-74
2023/07/24 01:33:58;;;;;;;;;;;20.10;91.90;;;;;;2073003;28;20422;-74
2023/07/24 01:34:59;;;;;;;;;;;20.00;91.90;;;;;;2076791;28;20103;-74
2023/07/24 01:36:00;;;;;;;;;;;20.00;92.00;;;;;;2075002;28;19939;-74
2023/07/24 01:37:01;;;;;;;;;;;20.00;91.90;;;;;;2066638;28;20227;-74
2023/07/24 01:38:02;;;;;;;;;;;20.10;91.90;;;;;;2066801;28;20039;-74
2023/07/24 01:39:03;;;;;;;;;;;20.10;92.10;;;;;;2076823;28;20007;-74
2023/07/24 01:40:04;;;;;;;;;;;20.10;92.30;;;;;;2074660;28;20265;-74
2023/07/24 01:41:04;;;;;;;;;;;20.10;92.30;;;;;;2074832;28;19920;-75
2023/07/24 01:42:05;;;;;;;;;;;20.10;92.40;;;;;;2067008;28;19913;-75
2023/07/24 01:43:05;;;;;;;;;;;20.10;92.50;;;;;;2073320;28;19917;-75
2023/07/24 01:44:06;;;;;;;;;;;20.10;92.50;;;;;;2066800;28;20005;-74
2023/07/24 01:45:07;;;;;;;;;;;20.10;92.50;;;;;;2066726;28;20017;-75
2023/07/24 01:46:08;;;;;;;;;;;20.10;92.40;;;;;;2074910;28;20329;-74
2023/07/24 01:47:10;;;;;;;;;;;20.10;92.20;;;;;;2075619;28;20003;-75
2023/07/24 01:48:12;;;;;;;;;;;20.10;92.30;;;;;;2076713;28;19922;-75
2023/07/24 01:49:12;;;;;;;;;;;20.10;92.30;;;;;;2074847;28;20356;-75
2023/07/24 01:50:13;;;;;;;;;;;20.10;92.30;;;;;;2068444;28;20400;-75
2023/07/24 01:51:13;;;;;;;;;;;20.10;92.40;;;;;;2061781;28;19917;-75
2023/07/24 01:52:14;;;;;;;;;;;20.10;92.40;;;;;;2068839;28;19949;-74
2023/07/24 01:53:14;;;;;;;;;;;20.10;92.40;;;;;;2066824;28;19917;-75
2023/07/24 01:54:15;;;;;;;;;;;20.10;92.50;;;;;;2066695;28;20389;-75
2023/07/24 01:55:15;;;;;;;;;;;20.10;92.60;;;;;;2050325;28;19930;-74
2023/07/24 01:56:16;;;;;;;;;;;20.10;92.70;;;;;;2064729;28;20416;-74
2023/07/24 01:57:17;;;;;;;;;;;20.10;92.70;;;;;;2061262;28;19925;-75
2023/07/24 01:58:17;;;;;;;;;;;20.10;92.90;;;;;;2066504;28;19913;-75
2023/07/24 01:59:18;;;;;;;;;;;20.10;92.90;;;;;;2059148;28;19914;-75
2023/07/24 02:00:18;;;;;;;;;;;20.10;93.00;;;;;;2052424;28;19922;-74
2023/07/24 02:01:19;;;;;;;;;;;20.10;93.00;;;;;;2066731;28;19921;-75
2023/07/24 02:02:19;;;;;;;;;;;20.10;93.10;;;;;;2074834;28;19910;-75
2023/07/24 02:03:20;;;;;;;;;;;20.10;93.20;;;;;;2074808;28;20574;-75
2023/07/24 02:04:22;;;;;;;;;;;20.10;93.20;;;;;;2076687;28;20039;-75
2023/07/24 02:05:23;;;;;;;;;;;20.10;93.10;;;;;;2058833;28;20266;-75
2023/07/24 02:06:24;;;;;;;;;;;20.10;93.00;;;;;;2066908;28;20211;-75
2023/07/24 02:07:24;;;;;;;;;;;20.10;92.90;;;;;;2074287;28;20021;-75
2023/07/24 02:08:25;;;;;;;;;;;20.10;92.90;;;;;;2057170;28;19961;-76
2023/07/24 02:09:25;;;;;;;;;;;20.00;92.90;;;;;;2062933;28;19957;-74
2023/07/24 02:10:26;;;;;;;;;;;20.00;92.80;;;;;;2059768;28;20413;-75
2023/07/24 02:11:26;;;;;;;;;;;20.10;92.90;;;;;;2066738;28;20365;-75
2023/07/24 02:12:27;;;;;;;;;;;20.00;93.00;;;;;;2074708;28;20439;-75
2023/07/24 02:13:27;;;;;;;;;;;20.00;92.90;;;;;;2076514;28;19924;-74
2023/07/24 02:14:28;;;;;;;;;;;20.00;92.90;;;;;;2072493;28;20004;-75
2023/07/24 02:15:29;;;;;;;;;;;20.00;93.40;;;;;;2081706;28;20517;-75
2023/07/24 02:16:29;;;;;;;;;;;20.00;93.80;;;;;;2082997;28;19971;-75
2023/07/24 02:17:30;;;;;;;;;;;20.00;93.90;;;;;;2078011;28;19937;-75
2023/07/24 02:18:30;;;;;;;;;;;20.00;93.90;;;;;;2073164;28;19939;-75
2023/07/24 02:19:31;;;;;;;;;;;20.00;93.60;;;;;;2066591;28;19972;-75
2023/07/24 02:20:31;;;;;;;;;;;20.00;93.50;;;;;;2066347;28;19961;-74
2023/07/24 02:21:32;;;;;;;;;;;20.00;93.30;;;;;;2074459;28;19928;-75
2023/07/24 02:22:32;;;;;;;;;;;20.00;93.30;;;;;;2068473;28;19953;-75
2023/07/24 02:23:33;;;;;;;;;;;20.00;93.40;;;;;;2075370;28;19914;-75
2023/07/24 02:24:33;;;;;;;;;;;19.90;93.40;;;;;;2075353;28;19913;-75
2023/07/24 02:25:35;;;;;;;;;;;20.00;93.40;;;;;;2068051;28;20034;-75
2023/07/24 02:26:36;;;;;;;;;;;19.90;93.40;;;;;;2068425;28;20164;-75
2023/07/24 02:27:37;;;;;;;;;;;20.00;93.40;;;;;;2082927;28;19917;-74
2023/07/24 02:28:37;;;;;;;;;;;19.90;93.40;;;;;;2081100;28;19913;-75
2023/07/24 02:29:38;;;;;;;;;;;19.90;93.40;;;;;;2081118;28;19921;-75
2023/07/24 02:30:39;;;;;;;;;;;19.90;93.40;;;;;;2088808;28;20433;-75
2023/07/24 02:31:39;;;;;;;;;;;19.90;93.80;;;;;;2078990;28;19914;-74
2023/07/24 02:32:40;;;;;;;;;;;19.90;93.60;;;;;;2077049;28;19917;-74
2023/07/24 02:33:40;;;;;;;;;;;19.80;93.50;;;;;;2073573;28;19921;-74
2023/07/24 02:34:41;;;;;;;;;;;19.90;93.60;;;;;;2074325;28;19964;-73
2023/07/24 02:35:43;;;;;;;;;;;19.90;93.90;;;;;;2076310;28;19917;-74
2023/07/24 02:36:43;;;;;;;;;;;19.80;93.90;;;;;;2070324;28;20484;-74
2023/07/24 02:37:44;;;;;;;;;;;19.80;93.90;;;;;;2068207;28;19955;-76
2023/07/24 02:38:45;;;;;;;;;;;19.80;94.00;;;;;;2068105;28;19917;-74
2023/07/24 02:39:46;;;;;;;;;;;19.80;94.00;;;;;;2059845;28;19918;-75
2023/07/24 02:40:46;;;;;;;;;;;19.80;94.00;;;;;;2065871;28;19972;-75
2023/07/24 02:41:49;;;;;;;;;;;19.80;94.10;;;;;;2079722;28;19912;-73
2023/07/24 02:42:49;;;;;;;;;;;19.90;94.00;;;;;;2082729;28;19917;-74
2023/07/24 02:43:50;;;;;;;;;;;19.80;94.10;;;;;;2076947;28;20376;-74
2023/07/24 02:44:50;;;;;;;;;;;19.90;94.10;;;;;;2078049;28;19925;-74
2023/07/24 02:45:51;;;;;;;;;;;19.80;94.20;;;;;;2064476;28;20290;-74
2023/07/24 02:46:51;;;;;;;;;;;19.80;94.10;;;;;;2052908;28;19918;-75
2023/07/24 02:47:52;;;;;;;;;;;19.90;94.10;;;;;;2059915;28;19922;-74
2023/07/24 02:48:53;;;;;;;;;;;19.90;94.00;;;;;;2060191;28;20407;-74
2023/07/24 02:49:54;;;;;;;;;;;19.90;93.90;;;;;;2061701;28;20500;-74
2023/07/24 02:50:54;;;;;;;;;;;19.90;93.90;;;;;;2063286;28;19941;-74
2023/07/24 02:51:55;;;;;;;;;;;19.90;93.90;;;;;;2079314;28;20388;-75
2023/07/24 02:52:55;;;;;;;;;;;20.00;93.70;;;;;;2068193;28;20335;-75
2023/07/24 02:53:56;;;;;;;;;;;20.00;93.70;;;;;;2076157;28;19991;-75
2023/07/24 02:54:56;;;;;;;;;;;20.00;93.60;;;;;;2076197;28;20439;-75
2023/07/24 02:55:57;;;;;;;;;;;20.00;93.50;;;;;;2069953;28;20007;-75
2023/07/24 02:56:58;;;;;;;;;;;20.00;93.70;;;;;;2062431;28;20008;-75
2023/07/24 02:57:58;;;;;;;;;;;20.00;93.90;;;;;;2069849;28;19952;-75
2023/07/24 02:58:59;;;;;;;;;;;20.00;94.20;;;;;;2077946;28;19964;-75
2023/07/24 03:00:00;;;;;;;;;;;20.00;94.10;;;;;;2068022;28;19960;-75
2023/07/24 03:01:04;;;;;;;;;;;20.00;94.10;;;;;;2075899;28;20370;-75
2023/07/24 03:02:04;;;;;;;;;;;20.00;94.20;;;;;;2067883;28;20416;-76
2023/07/24 03:03:05;;;;;;;;;;;20.00;94.20;;;;;;2061931;28;19917;-74
2023/07/24 03:04:06;;;;;;;;;;;20.00;94.30;;;;;;2076010;28;19924;-74
2023/07/24 03:05:06;;;;;;;;;;;20.00;94.30;;;;;;2076095;28;19917;-75
2023/07/24 03:06:08;;;;;;;;;;;20.00;94.60;;;;;;2067778;28;19967;-74
2023/07/24 03:07:08;;;;;;;;;;;20.00;94.20;;;;;;2077580;28;20446;-75
2023/07/24 03:08:09;;;;;;;;;;;20.00;94.30;;;;;;2077050;28;19920;-74
2023/07/24 03:09:10;;;;;;;;;;;20.00;94.40;;;;;;2067488;28;19948;-75
2023/07/24 03:10:10;;;;;;;;;;;20.00;94.40;;;;;;2070979;28;19917;-75
2023/07/24 03:11:11;;;;;;;;;;;20.00;94.40;;;;;;2079479;28;19913;-74
2023/07/24 03:12:11;;;;;;;;;;;20.00;94.40;;;;;;2077987;28;19971;-74
2023/07/24 03:13:12;;;;;;;;;;;20.00;94.50;;;;;;2067767;28;19991;-74
2023/07/24 03:14:13;;;;;;;;;;;20.00;94.80;;;;;;2067433;28;20412;-75
2023/07/24 03:15:13;;;;;;;;;;;20.00;94.90;;;;;;2075827;28;19932;-74
2023/07/24 03:16:14;;;;;;;;;;;20.10;94.80;;;;;;2077762;28;19913;-74
2023/07/24 03:17:15;;;;;;;;;;;20.10;94.80;;;;;;2075932;28;19971;-74
2023/07/24 03:18:15;;;;;;;;;;;20.10;94.90;;;;;;2075910;28;20008;-74
2023/07/24 03:19:17;;;;;;;;;;;20.10;95.00;;;;;;2075975;28;20398;-74
2023/07/24 03:20:18;;;;;;;;;;;20.10;95.00;;;;;;2069395;28;20614;-74
2023/07/24 03:21:19;;;;;;;;;;;20.10;95.00;;;;;;2076169;28;19917;-74
2023/07/24 03:22:19;;;;;;;;;;;20.10;95.00;;;;;;2077751;28;19921;-76
2023/07/24 03:23:20;;;;;;;;;;;20.10;95.00;;;;;;2075429;28;19936;-74
2023/07/24 03:24:21;;;;;;;;;;;20.10;95.00;;;;;;2075827;28;19917;-74
2023/07/24 03:25:22;;;;;;;;;;;20.10;95.10;;;;;;2069538;28;20471;-74
2023/07/24 03:26:22;;;;;;;;;;;20.10;95.00;;;;;;2059662;28;19917;-74
2023/07/24 03:27:23;;;;;;;;;;;20.10;95.10;;;;;;2071037;28;19921;-74
2023/07/24 03:28:25;;;;;;;;;;;20.20;95.10;;;;;;2074528;28;19919;-74
2023/07/24 03:29:26;;;;;;;;;;;20.20;95.10;;;;;;2067654;28;20343;-73
2023/07/24 03:30:26;;;;;;;;;;;20.20;95.10;;;;;;2067791;28;20041;-73
2023/07/24 03:31:27;;;;;;;;;;;20.20;95.10;;;;;;2067769;28;19936;-73
2023/07/24 03:32:27;;;;;;;;;;;20.10;95.20;;;;;;2081179;28;19923;-73
2023/07/24 03:33:28;;;;;;;;;;;20.20;95.70;;;;;;2073043;28;20312;-73
2023/07/24 03:34:28;;;;;;;;;;;20.10;95.50;;;;;;2075340;28;20245;-74
2023/07/24 03:35:29;;;;;;;;;;;20.20;95.70;;;;;;2075654;28;19929;-74
2023/07/24 03:36:30;;;;;;;;;;;20.20;95.60;;;;;;2069462;28;19917;-75
2023/07/24 03:37:30;;;;;;;;;;;20.20;95.70;;;;;;2067615;28;19917;-74
2023/07/24 03:38:31;;;;;;;;;;;20.20;95.60;;;;;;2075971;28;20412;-75
2023/07/24 03:39:32;;;;;;;;;;;20.20;95.60;;;;;;2075660;28;20430;-75
2023/07/24 03:40:32;;;;;;;;;;;20.20;95.60;;;;;;2069686;28;19914;-74
2023/07/24 03:41:33;;;;;;;;;;;20.20;95.70;;;;;;2075828;28;20466;-74
2023/07/24 03:42:33;;;;;;;;;;;20.20;95.70;;;;;;2075969;28;19933;-74
2023/07/24 03:43:33;;;;;;;;;;;20.20;95.60;;;;;;2075996;28;20012;-75
2023/07/24 03:44:34;;;;;;;;;;;20.20;95.60;;;;;;2069361;28;19968;-75
2023/07/24 03:45:34;;;;;;;;;;;20.20;95.80;;;;;;2057490;28;19920;-74
2023/07/24 03:46:35;;;;;;;;;;;20.20;95.90;;;;;;2067418;28;20016;-74
2023/07/24 03:47:35;;;;;;;;;;;20.30;95.90;;;;;;2079533;28;19917;-74
2023/07/24 03:48:36;;;;;;;;;;;20.20;95.80;;;;;;2087039;28;19940;-73
2023/07/24 03:49:37;;;;;;;;;;;20.20;95.90;;;;;;2077792;28;19921;-72
2023/07/24 03:50:37;;;;;;;;;;;20.30;95.90;;;;;;2072470;28;20356;-76
2023/07/24 03:51:38;;;;;;;;;;;20.30;95.80;;;;;;2075542;28;20011;-76
2023/07/24 03:52:38;;;;;;;;;;;20.30;95.70;;;;;;2075811;28;20431;-76
2023/07/24 03:53:39;;;;;;;;;;;20.30;95.60;;;;;;2077590;28;19979;-76
2023/07/24 03:54:39;;;;;;;;;;;20.30;95.60;;;;;;2075583;28;19921;-75
2023/07/24 03:55:40;;;;;;;;;;;20.30;95.50;;;;;;2075629;28;19913;-75
2023/07/24 03:56:40;;;;;;;;;;;20.40;95.50;;;;;;2071424;28;20376;-75
2023/07/24 03:57:40;;;;;;;;;;;20.40;95.50;;;;;;2079592;28;19917;-76
2023/07/24 03:58:41;;;;;;;;;;;20.40;95.60;;;;;;2069672;28;19943;-75
2023/07/24 03:59:42;;;;;;;;;;;20.40;95.50;;;;;;2075632;28;20206;-75
2023/07/24 04:00:42;;;;;;;;;;;20.40;95.80;;;;;;2075534;28;20167;-75
2023/07/24 04:01:43;;;;;;;;;;;20.40;95.40;;;;;;2063874;28;19924;-75
2023/07/24 04:02:43;;;;;;;;;;;20.40;95.40;;;;;;2073131;28;19940;-75
2023/07/24 04:03:44;;;;;;;;;;;20.50;95.40;;;;;;2067493;28;19921;-75
2023/07/24 04:04:45;;;;;;;;;;;20.40;95.40;;;;;;2067503;28;19913;-74
2023/07/24 04:05:45;;;;;;;;;;;20.50;95.30;;;;;;2078969;28;19925;-74
2023/07/24 04:06:46;;;;;;;;;;;20.50;95.30;;;;;;2079415;28;20020;-74
2023/07/24 04:07:47;;;;;;;;;;;20.50;95.30;;;;;;2071253;28;19917;-74
2023/07/24 04:08:47;;;;;;;;;;;20.50;95.30;;;;;;2066057;28;20409;-75
2023/07/24 04:09:48;;;;;;;;;;;20.50;95.20;;;;;;2075645;28;20219;-75
2023/07/24 04:10:48;;;;;;;;;;;20.50;95.10;;;;;;2077394;28;19940;-76
2023/07/24 04:11:49;;;;;;;;;;;20.50;95.10;;;;;;2067403;28;19918;-75
2023/07/24 04:12:50;;;;;;;;;;;20.50;95.00;;;;;;2067288;28;20016;-75
2023/07/24 04:13:50;;;;;;;;;;;20.60;95.10;;;;;;2078672;28;19976;-76
2023/07/24 04:14:51;;;;;;;;;;;20.60;95.00;;;;;;2081264;28;20430;-75
2023/07/24 04:15:51;;;;;;;;;;;20.60;95.00;;;;;;2075497;28;19917;-75
2023/07/24 04:16:52;;;;;;;;;;;20.60;95.20;;;;;;2075165;28;20225;-75
2023/07/24 04:17:52;;;;;;;;;;;20.60;95.30;;;;;;2067226;28;19914;-75
2023/07/24 04:18:53;;;;;;;;;;;20.60;95.20;;;;;;2059070;28;19993;-75
2023/07/24 04:19:53;;;;;;;;;;;20.70;95.30;;;;;;2075524;28;19921;-75
2023/07/24 04:20:55;;;;;;;;;;;20.70;95.30;;;;;;2077059;28;19917;-75
2023/07/24 04:21:55;;;;;;;;;;;20.70;95.50;;;;;;2076535;28;19924;-75
2023/07/24 04:22:56;;;;;;;;;;;20.70;95.50;;;;;;2075345;28;19929;-75
2023/07/24 04:23:56;;;;;;;;;;;20.70;95.50;;;;;;2075276;28;19999;-74
2023/07/24 04:24:57;;;;;;;;;;;20.70;95.80;;;;;;2081336;28;19967;-75
2023/07/24 04:25:57;;;;;;;;;;;20.70;95.90;;;;;;2079832;28;20404;-74
2023/07/24 04:26:58;;;;;;;;;;;20.80;96.10;;;;;;2075661;28;19913;-73
2023/07/24 04:27:58;;;;;;;;;;;20.80;96.10;;;;;;2075410;28;20039;-74
2023/07/24 04:28:59;;;;;;;;;;;20.80;96.00;;;;;;2067298;28;20028;-73
2023/07/24 04:29:59;;;;;;;;;;;20.80;95.90;;;;;;2067126;28;20264;-73
2023/07/24 04:31:01;;;;;;;;;;;20.80;95.90;;;;;;2078185;28;19917;-73
2023/07/24 04:32:01;;;;;;;;;;;20.80;95.90;;;;;;2070003;28;20393;-73
2023/07/24 04:33:02;;;;;;;;;;;20.90;95.90;;;;;;2068889;28;19918;-74
2023/07/24 04:34:02;;;;;;;;;;;20.90;95.90;;;;;;2075449;28;20618;-74
2023/07/24 04:35:03;;;;;;;;;;;20.90;95.70;;;;;;2073480;28;19921;-74
2023/07/24 04:36:04;;;;;;;;;;;20.90;95.60;;;;;;2074833;28;20451;-75
2023/07/24 04:37:04;;;;;;;;;;;20.90;95.50;;;;;;2076006;28;19916;-75
2023/07/24 04:38:05;;;;;;;;;;;20.90;95.50;;;;;;2075996;28;19932;-76
2023/07/24 04:39:05;;;;;;;;;;;21.00;95.50;;;;;;2077735;28;20035;-78
2023/07/24 04:40:06;;;;;;;;;;;21.00;95.40;;;;;;2072438;28;19940;-78
2023/07/24 04:41:07;;;;;;;;;;;21.00;95.50;;;;;;2062310;28;20368;-77
2023/07/24 04:42:07;;;;;;;;;;;21.00;95.60;;;;;;2067081;28;19945;-77
2023/07/24 04:43:08;;;;;;;;;;;21.00;95.20;;;;;;2077941;28;19920;-79
2023/07/24 04:44:08;;;;;;;;;;;21.00;95.40;;;;;;2075070;28;19940;-77
2023/07/24 04:45:09;;;;;;;;;;;21.10;95.40;;;;;;2075437;28;20425;-78
2023/07/24 04:46:09;;;;;;;;;;;21.10;95.30;;;;;;2074491;28;19921;-78
2023/07/24 04:47:10;;;;;;;;;;;21.20;95.10;;;;;;2077246;28;20476;-78
2023/07/24 04:48:10;;;;;;;;;;;21.20;94.90;;;;;;2076112;28;19939;-78
2023/07/24 04:49:11;;;;;;;;;;;21.30;94.70;;;;;;2075277;28;19921;-76
2023/07/24 04:50:11;;;;;;;;;;;21.40;94.60;;;;;;2067113;28;19914;-76
2023/07/24 04:51:12;;;;;;;;;;;21.40;94.60;;;;;;2076913;28;19944;-76
2023/07/24 04:52:12;;;;;;;;;;;21.40;94.50;;;;;;2076113;28;20012;-76
2023/07/24 04:53:13;;;;;;;;;;;21.40;94.40;;;;;;2075321;28;20000;-75
2023/07/24 04:54:13;;;;;;;;;;;21.50;94.30;;;;;;2075182;28;20435;-75
2023/07/24 04:55:14;;;;;;;;;;;21.50;94.20;;;;;;2075336;28;19965;-75
2023/07/24 04:56:14;;;;;;;;;;;21.50;94.00;;;;;;2073029;28;19917;-76
2023/07/24 04:57:15;;;;;;;;;;;21.50;93.80;;;;;;2075194;28;19960;-75
2023/07/24 04:58:15;;;;;;;;;;;21.50;93.50;;;;;;2075738;28;19917;-76
2023/07/24 04:59:16;;;;;;;;;;;21.50;93.50;;;;;;2075045;28;20285;-76
2023/07/24 05:00:16;;;;;;;;;;;21.60;93.70;;;;;;2067024;28;19940;-76
2023/07/24 05:01:17;;;;;;;;;;;21.60;93.50;;;;;;2077141;28;19925;-76
2023/07/24 05:02:17;;;;;;;;;;;21.70;93.60;;;;;;2075073;28;19971;-76
2023/07/24 05:03:19;;;;;;;;;;;21.80;93.50;;;;;;2075154;28;20386;-76
2023/07/24 05:04:19;;;;;;;;;;;21.90;93.30;;;;;;2075743;28;19917;-76
2023/07/24 05:05:20;;;;;;;;;;;22.00;93.30;;;;;;2077760;28;19945;-76
2023/07/24 05:06:20;;;;;;;;;;;22.00;93.30;;;;;;2076034;28;20355;-76
2023/07/24 05:07:21;;;;;;;;;;;22.10;93.20;;;;;;2075562;28;19940;-76
2023/07/24 05:08:22;;;;;;;;;;;22.10;92.90;;;;;;2075155;28;19924;-76
2023/07/24 05:09:22;;;;;;;;;;;22.20;93.00;;;;;;2063285;28;19914;-76
2023/07/24 05:10:23;;;;;;;;;;;22.20;93.00;;;;;;2077096;28;19917;-76
2023/07/24 05:11:23;;;;;;;;;;;22.20;93.00;;;;;;2075382;28;19936;-76
2023/07/24 05:12:24;;;;;;;;;;;22.20;92.90;;;;;;2075717;28;20479;-76
2023/07/24 05:13:25;;;;;;;;;;;22.30;92.90;;;;;;2077607;28;19945;-77
2023/07/24 05:14:25;;;;;;;;;;;22.30;92.90;;;;;;2075757;28;20471;-78
2023/07/24 05:15:26;;;;;;;;;;;22.20;93.00;;;;;;2075167;28;19975;-77
2023/07/24 05:16:26;;;;;;;;;;;22.20;93.10;;;;;;2078513;28;19921;-76
2023/07/24 05:17:27;;;;;;;;;;;22.30;93.00;;;;;;2082855;28;19956;-77
2023/07/24 05:18:27;;;;;;;;;;;22.30;93.00;;;;;;2075690;28;20305;-76
2023/07/24 05:19:28;;;;;;;;;;;22.30;93.00;;;;;;2075917;28;19913;-77
2023/07/24 05:20:28;;;;;;;;;;;22.30;92.90;;;;;;2076457;28;19913;-76
2023/07/24 05:21:29;;;;;;;;;;;22.40;92.90;;;;;;2075628;28;19913;-76
2023/07/24 05:22:29;;;;;;;;;;;22.40;92.80;;;;;;2075877;28;19976;-77
2023/07/24 05:23:30;;;;;;;;;;;22.40;92.80;;;;;;2072843;28;19986;-75
2023/07/24 05:24:30;;;;;;;;;;;22.50;92.80;;;;;;2070119;28;19913;-75
2023/07/24 05:25:31;;;;;;;;;;;22.50;92.70;;;;;;2074006;28;20055;-75
2023/07/24 05:26:31;;;;;;;;;;;22.50;92.70;;;;;;2075659;28;19913;-77
2023/07/24 05:27:32;;;;;;;;;;;22.50;92.70;;;;;;2075417;28;19924;-75
2023/07/24 05:28:33;;;;;;;;;;;22.50;92.80;;;;;;2076732;28;20256;-75
2023/07/24 05:29:33;;;;;;;;;;;22.50;92.80;;;;;;2064028;28;19918;-77
2023/07/24 05:30:34;;;;;;;;;;;22.50;92.80;;;;;;2062515;28;20129;-76
2023/07/24 05:31:35;;;;;;;;;;;22.50;92.80;;;;;;2075023;28;20395;-76
2023/07/24 05:32:36;;;;;;;;;;;22.50;92.80;;;;;;2077370;28;19921;-76
2023/07/24 05:33:36;;;;;;;;;;;22.50;92.70;;;;;;2074984;28;20356;-76
2023/07/24 05:34:37;;;;;;;;;;;22.40;92.70;;;;;;2074887;28;20450;-77
2023/07/24 05:35:37;;;;;;;;;;;22.40;92.50;;;;;;2075593;28;20024;-76
2023/07/24 05:36:38;;;;;;;;;;;22.40;92.70;;;;;;2074728;28;19917;-76
2023/07/24 05:37:38;;;;;;;;;;;22.40;92.70;;;;;;2068642;28;20159;-75
2023/07/24 05:38:39;;;;;;;;;;;22.40;92.90;;;;;;2074934;28;20370;-76
2023/07/24 05:39:39;;;;;;;;;;;22.30;93.00;;;;;;2075282;28;19917;-75
2023/07/24 05:40:40;;;;;;;;;;;22.30;92.80;;;;;;2074806;28;20044;-76
2023/07/24 05:41:40;;;;;;;;;;;22.20;93.00;;;;;;2071038;28;19923;-75
2023/07/24 05:42:43;;;;;;;;;;;22.20;93.20;;;;;;2074570;28;19956;-75
2023/07/24 05:43:43;;;;;;;;;;;22.20;93.40;;;;;;2066615;28;19924;-75
2023/07/24 05:44:44;;;;;;;;;;;22.20;93.60;;;;;;2058325;28;20016;-75
2023/07/24 05:45:44;;;;;;;;;;;22.20;93.50;;;;;;2076699;28;19944;-75
2023/07/24 05:46:45;;;;;;;;;;;22.20;93.30;;;;;;2075205;28;19917;-75
2023/07/24 05:47:45;;;;;;;;;;;22.20;93.40;;;;;;2074863;28;19924;-75
2023/07/24 05:48:46;;;;;;;;;;;22.20;93.40;;;;;;2068351;28;20004;-76
2023/07/24 05:49:46;;;;;;;;;;;22.20;93.50;;;;;;2074676;28;20308;-76
2023/07/24 05:50:47;;;;;;;;;;;22.20;93.30;;;;;;2072469;28;19924;-76
2023/07/24 05:51:48;;;;;;;;;;;22.20;93.40;;;;;;2076002;28;19912;-76
2023/07/24 05:52:48;;;;;;;;;;;22.20;93.20;;;;;;2085876;28;19916;-76
2023/07/24 05:53:49;;;;;;;;;;;22.30;93.20;;;;;;2081647;28;20364;-78